Aeroporto :
LOGIN :

Iscrizione | Disclaimer

   EN    FR    IT 

 










Sommario :    VFR   VFR Marginale   IFR   IFR Intensivo   IFR Molto Intensivo
Visibilità : 
Base nubi : 
>= 8 km
>= 3000ft
5 / 8 km
1000 / 3000 ft
1500m / 5 km
500 / 1000 ft
800 / 1500m
200 / 500 ft
< 800m
< 200 ft
Simboli :   Temporali  Nebbia  Neve Forte  Precipitazioni Forti  Vento > 20 kt
SIGMETs :   Varie  Temporali  Ghiacco  Turbolenza  Onda orograficha  Ceneri Vulcaniche






- Altitudine del aeroporto : 112 ft
- Codice IATA : KIR


EIKY - Kerry Farranfore

ULTIMO METAR :
  • 061700Z 26007KT 240V300 9999 FEW020 SCT031 09/07 Q1008

METARs OBSOLETI :
  • 061600Z 28009KT 250V320 9999 SCT026 10/06 Q1007
  • 061530Z VRB08KT 9999 FEW025 SCT034 10/06 Q1007
  • 061500Z 31015KT 9999 SCT025 10/06 Q1006

TAF TAF EIKY
Valido dal 06 a 18 ore il 07 a 03 ore UTC


061700Z 0618/0703 27010KT 9999 FEW018 SCT028
BECMG 0618/0620 24006KT



MetMap, La meteo Aeronautica in un colpo d'occhio ! - Copyright ORBIFLY Dicembre 2007 - Disclaimer

ORBIFLY MET'MAP TEAM :

Programmazione e sviluppo : Alexandra Zaïnal
Concezione : Baudouin d'Aumeries
Aiuto per la programmazione : Marc-Olivier Méhu
Supporto tecnico e logistico : Manuel Goepfert
Aiuto per la traduzione : Arnaldo La Scala

Contatto : metmap@orbifly.com




FONTI E CREDITI :

   NOAA